createdAt,value
2024-01-05T00:00:43.983Z,0.80
2024-01-05T00:01:43.928Z,2.00
2024-01-05T00:02:43.817Z,1.20
2024-01-05T00:03:43.960Z,2.50
2024-01-05T00:04:43.774Z,1.70
2024-01-05T00:05:43.982Z,1.20
2024-01-05T00:06:44.130Z,1.10
2024-01-05T00:07:43.801Z,0.80
2024-01-05T00:08:43.792Z,1.60
2024-01-05T00:09:43.745Z,1.60
2024-01-05T00:10:43.709Z,0.70
2024-01-05T00:11:43.749Z,2.20
2024-01-05T00:12:43.744Z,2.40
2024-01-05T00:13:43.725Z,2.70
2024-01-05T00:14:43.645Z,3.10
2024-01-05T00:15:43.731Z,1.10
2024-01-05T00:16:43.938Z,2.10
2024-01-05T00:17:43.711Z,2.20
2024-01-05T00:18:43.845Z,1.70
2024-01-05T00:19:43.715Z,6.20
2024-01-05T00:20:43.555Z,1.60
2024-01-05T00:21:43.634Z,1.30
2024-01-05T00:22:43.542Z,2.30
2024-01-05T00:23:43.583Z,2.00
2024-01-05T00:24:43.513Z,2.00
2024-01-05T00:25:43.614Z,0.70
2024-01-05T00:26:43.955Z,1.10
2024-01-05T00:27:43.579Z,2.00
2024-01-05T00:28:43.456Z,2.10
2024-01-05T00:29:43.532Z,0.50
2024-01-05T00:30:43.518Z,1.50
2024-01-05T00:31:43.487Z,0.90
2024-01-05T00:32:43.502Z,1.40
2024-01-05T00:33:43.763Z,1.30
2024-01-05T00:34:43.502Z,0.90
2024-01-05T00:35:43.495Z,0.80
2024-01-05T00:36:43.701Z,2.30
2024-01-05T00:37:43.407Z,2.30
2024-01-05T00:38:43.323Z,1.40
2024-01-05T00:39:43.378Z,0.70
2024-01-05T00:40:43.319Z,1.50
2024-01-05T00:41:43.322Z,1.50
2024-01-05T00:42:43.302Z,1.70
2024-01-05T00:43:43.345Z,1.60
2024-01-05T00:44:43.258Z,1.30
2024-01-05T00:45:43.405Z,0.60
2024-01-05T00:46:43.567Z,2.10
2024-01-05T00:47:43.326Z,3.00
2024-01-05T00:48:43.357Z,3.00
2024-01-05T00:49:43.343Z,1.00
2024-01-05T00:50:43.177Z,1.80
2024-01-05T00:51:43.245Z,1.10
2024-01-05T00:52:43.147Z,1.00
2024-01-05T00:53:43.198Z,3.00
2024-01-05T00:54:43.119Z,1.10
2024-01-05T00:55:43.237Z,1.40
2024-01-05T00:56:43.647Z,1.40
2024-01-05T00:57:43.238Z,1.10
2024-01-05T00:58:43.053Z,1.30
2024-01-05T00:59:43.146Z,0.90
2024-01-05T01:00:43.130Z,1.40
2024-01-05T01:01:43.066Z,0.80
2024-01-05T01:02:43.048Z,0.50
2024-01-05T01:03:43.220Z,0.40
2024-01-05T01:04:43.098Z,1.60
2024-01-05T01:05:43.106Z,1.30
2024-01-05T01:06:43.214Z,1.70
2024-01-05T01:07:42.998Z,2.20
2024-01-05T01:08:42.925Z,1.90
2024-01-05T01:09:42.970Z,0.40
2024-01-05T01:10:42.905Z,3.90
2024-01-05T01:11:42.913Z,2.50
2024-01-05T01:12:42.898Z,0.90
2024-01-05T01:13:42.941Z,2.50
2024-01-05T01:14:42.892Z,1.50
2024-01-05T01:15:42.950Z,2.80
2024-01-05T01:16:42.929Z,1.40
2024-01-05T01:17:42.969Z,3.60
2024-01-05T01:18:42.981Z,3.20
2024-01-05T01:19:42.960Z,1.40
2024-01-05T01:20:42.760Z,1.90
2024-01-05T01:21:42.889Z,2.50
2024-01-05T01:22:42.740Z,0.60
2024-01-05T01:23:42.812Z,1.20
2024-01-05T01:24:42.705Z,3.10
2024-01-05T01:25:42.723Z,1.30
2024-01-05T01:26:42.833Z,1.80
2024-01-05T01:27:42.775Z,2.60
2024-01-05T01:28:42.659Z,0.80
2024-01-05T01:29:42.739Z,0.60
2024-01-05T01:30:42.714Z,1.10
2024-01-05T01:31:42.653Z,1.60
2024-01-05T01:32:42.618Z,2.00
2024-01-05T01:33:42.799Z,0.80
2024-01-05T01:34:42.619Z,1.30
2024-01-05T01:35:42.589Z,2.40
2024-01-05T01:36:42.906Z,1.40
2024-01-05T01:37:42.598Z,1.10
2024-01-05T01:38:42.536Z,2.20
2024-01-05T01:39:42.563Z,0.70
2024-01-05T01:40:42.492Z,1.40
2024-01-05T01:41:42.562Z,1.40
2024-01-05T01:42:42.578Z,1.80
2024-01-05T01:43:42.535Z,2.20
2024-01-05T01:44:42.445Z,1.70
2024-01-05T01:45:42.536Z,2.30
2024-01-05T01:46:42.935Z,1.20
2024-01-05T01:47:42.593Z,1.80
2024-01-05T01:48:42.570Z,2.20
2024-01-05T01:49:42.624Z,0.50
2024-01-05T01:50:42.365Z,4.80
2024-01-05T01:51:42.471Z,1.40
2024-01-05T01:52:42.336Z,1.90
2024-01-05T01:53:42.402Z,1.00
2024-01-05T01:54:42.445Z,0.50
2024-01-05T01:55:42.333Z,1.40
2024-01-05T01:56:42.406Z,3.70
2024-01-05T01:57:44.359Z,1.80
2024-01-05T01:58:42.273Z,3.10
2024-01-05T01:59:42.347Z,4.40
2024-01-05T02:00:42.302Z,2.10
2024-01-05T02:01:42.259Z,1.60
2024-01-05T02:02:42.201Z,1.40
2024-01-05T02:03:43.336Z,0.90
2024-01-05T02:04:42.293Z,1.20
2024-01-05T02:05:42.193Z,1.30
2024-01-05T02:06:42.492Z,0.70
2024-01-05T02:07:42.202Z,2.40
2024-01-05T02:08:42.125Z,1.40
2024-01-05T02:09:42.172Z,0.60
2024-01-05T02:10:42.131Z,3.10
2024-01-05T02:11:42.135Z,2.30
2024-01-05T02:12:42.113Z,1.10
2024-01-05T02:13:42.140Z,2.30
2024-01-05T02:14:42.052Z,1.30
2024-01-05T02:15:42.115Z,1.50
2024-01-05T02:16:42.557Z,2.20
2024-01-05T02:17:42.166Z,1.30
2024-01-05T02:18:42.112Z,1.60
2024-01-05T02:19:42.144Z,2.10
2024-01-05T02:20:41.972Z,2.60
2024-01-05T02:21:42.040Z,2.90
2024-01-05T02:22:41.956Z,2.20
2024-01-05T02:23:42.027Z,2.00
2024-01-05T02:24:41.929Z,1.40
2024-01-05T02:25:41.931Z,1.60
2024-01-05T02:26:42.324Z,2.10
2024-01-05T02:27:42.035Z,1.50
2024-01-05T02:28:41.870Z,1.30
2024-01-05T02:29:41.959Z,0.40
2024-01-05T02:30:42.019Z,1.80
2024-01-05T02:31:41.864Z,1.40
2024-01-05T02:32:41.818Z,1.60
2024-01-05T02:33:42.041Z,1.00
2024-01-05T02:34:41.806Z,2.80
2024-01-05T02:35:41.796Z,1.60
2024-01-05T02:36:42.120Z,1.30
2024-01-05T02:37:41.808Z,1.90
2024-01-05T02:38:41.728Z,1.10
2024-01-05T02:39:41.771Z,1.00
2024-01-05T02:40:41.740Z,2.50
2024-01-05T02:41:41.732Z,1.20
2024-01-05T02:42:41.681Z,2.30
2024-01-05T02:43:41.753Z,1.70
2024-01-05T02:44:41.642Z,1.50
2024-01-05T02:45:41.823Z,3.30
2024-01-05T02:46:41.865Z,1.40
2024-01-05T02:47:41.730Z,1.40
2024-01-05T02:48:41.737Z,0.90
2024-01-05T02:49:41.909Z,3.10
2024-01-05T02:50:41.558Z,0.80
2024-01-05T02:51:41.721Z,2.80
2024-01-05T02:52:41.589Z,1.90
2024-01-05T02:53:41.649Z,1.50
2024-01-05T02:54:41.516Z,0.90
2024-01-05T02:55:41.536Z,1.00
2024-01-05T02:56:41.725Z,3.00
2024-01-05T02:57:41.609Z,1.60
2024-01-05T02:58:41.469Z,3.30
2024-01-05T02:59:41.589Z,2.30
2024-01-05T03:00:41.582Z,0.50
2024-01-05T03:01:41.483Z,2.90
2024-01-05T03:02:41.434Z,1.80
2024-01-05T03:03:41.649Z,1.10
2024-01-05T03:04:41.390Z,1.70
2024-01-05T03:05:41.550Z,4.40
2024-01-05T03:06:41.530Z,0.80
2024-01-05T03:07:41.418Z,1.60
2024-01-05T03:08:41.334Z,1.70
2024-01-05T03:09:41.390Z,0.60
2024-01-05T03:10:41.300Z,1.60
2024-01-05T03:11:43.529Z,2.90
2024-01-05T03:12:41.360Z,0.70
2024-01-05T03:13:41.354Z,0.60
2024-01-05T03:14:41.247Z,2.20
2024-01-05T03:15:41.353Z,1.20
2024-01-05T03:16:41.520Z,1.90
2024-01-05T03:17:41.299Z,3.90
2024-01-05T03:18:41.343Z,3.00
2024-01-05T03:19:41.389Z,4.20
2024-01-05T03:20:41.170Z,1.40
2024-01-05T03:21:41.317Z,2.20
2024-01-05T03:22:41.161Z,2.70
2024-01-05T03:23:41.231Z,4.20
2024-01-05T03:24:41.114Z,2.50
2024-01-05T03:25:41.166Z,3.80
2024-01-05T03:26:41.220Z,1.80
2024-01-05T03:27:41.199Z,1.90
2024-01-05T03:28:41.065Z,2.20
2024-01-05T03:29:41.165Z,1.40
2024-01-05T03:30:41.042Z,3.20
2024-01-05T03:31:41.108Z,1.30
2024-01-05T03:32:41.150Z,2.20
2024-01-05T03:33:41.139Z,1.20
2024-01-05T03:34:41.007Z,0.40
2024-01-05T03:35:41.000Z,0.40
2024-01-05T03:36:41.600Z,0.50
2024-01-05T03:37:41.013Z,1.40
2024-01-05T03:38:40.967Z,1.20
2024-01-05T03:39:41.047Z,1.80
2024-01-05T03:40:40.895Z,2.20
2024-01-05T03:41:40.953Z,0.30
2024-01-05T03:42:40.926Z,2.00
2024-01-05T03:43:40.951Z,2.40
2024-01-05T03:44:40.847Z,3.60
2024-01-05T03:45:41.041Z,1.70
2024-01-05T03:46:41.193Z,0.50
2024-01-05T03:47:40.890Z,1.10
2024-01-05T03:48:40.934Z,1.10
2024-01-05T03:49:41.144Z,0.90
2024-01-05T03:50:40.765Z,1.90
2024-01-05T03:51:40.874Z,2.50
2024-01-05T03:52:40.760Z,2.30
2024-01-05T03:53:40.828Z,2.60
2024-01-05T03:54:40.772Z,3.90
2024-01-05T03:55:40.733Z,0.70
2024-01-05T03:56:41.014Z,1.90
2024-01-05T03:57:40.810Z,1.90
2024-01-05T03:58:40.666Z,1.10
2024-01-05T03:59:40.669Z,3.40
2024-01-05T04:00:40.694Z,5.80
2024-01-05T04:01:40.683Z,3.20
2024-01-05T04:02:40.680Z,3.60
2024-01-05T04:03:40.798Z,6.00
2024-01-05T04:04:40.763Z,6.20
2024-01-05T04:05:40.643Z,4.60
2024-01-05T04:06:40.949Z,1.40
2024-01-05T04:07:40.647Z,1.40
2024-01-05T04:08:40.545Z,2.30
2024-01-05T04:09:40.664Z,2.20
2024-01-05T04:10:40.505Z,4.00
2024-01-05T04:11:40.552Z,3.00
2024-01-05T04:12:40.485Z,4.10
2024-01-05T04:13:40.569Z,4.60
2024-01-05T04:14:40.457Z,3.00
2024-01-05T04:15:40.727Z,2.90
2024-01-05T04:16:40.797Z,2.10
2024-01-05T04:17:40.593Z,2.00
2024-01-05T04:18:40.529Z,4.40
2024-01-05T04:19:40.479Z,2.10
2024-01-05T04:20:40.375Z,3.20
2024-01-05T04:21:40.554Z,2.70
2024-01-05T04:22:40.345Z,2.20
2024-01-05T04:23:40.435Z,1.50
2024-01-05T04:24:40.364Z,2.70
2024-01-05T04:25:40.342Z,4.40
2024-01-05T04:26:40.505Z,1.40
2024-01-05T04:27:40.449Z,4.10
2024-01-05T04:28:40.279Z,3.20
2024-01-05T04:29:40.272Z,1.50
2024-01-05T04:30:40.347Z,4.30
2024-01-05T04:31:40.365Z,2.40
2024-01-05T04:32:40.300Z,2.50
2024-01-05T04:33:40.384Z,2.70
2024-01-05T04:34:40.354Z,4.60
2024-01-05T04:35:40.209Z,3.40
2024-01-05T04:36:40.222Z,3.80
2024-01-05T04:37:40.235Z,3.90
2024-01-05T04:38:40.129Z,4.30
2024-01-05T04:39:40.257Z,4.60
2024-01-05T04:40:40.113Z,5.30
2024-01-05T04:41:40.165Z,5.90
2024-01-05T04:42:40.131Z,5.70
2024-01-05T04:43:40.173Z,4.20
2024-01-05T04:44:40.060Z,5.70
2024-01-05T04:45:40.246Z,4.00
2024-01-05T04:46:40.026Z,6.20
2024-01-05T04:47:40.147Z,3.40
2024-01-05T04:48:40.307Z,5.10
2024-01-05T04:49:40.088Z,0.70
2024-01-05T04:50:39.983Z,1.80
2024-01-05T04:51:42.088Z,2.00
2024-01-05T04:52:39.941Z,1.40
2024-01-05T04:53:40.034Z,1.70
2024-01-05T04:54:39.972Z,2.50
2024-01-05T04:55:39.955Z,1.60
2024-01-05T04:56:39.895Z,1.30
2024-01-05T04:57:40.435Z,1.60
2024-01-05T04:58:39.861Z,1.40
2024-01-05T04:59:39.873Z,0.50
2024-01-05T05:00:39.952Z,1.60
2024-01-05T05:01:39.896Z,0.80
2024-01-05T05:02:39.878Z,1.80
2024-01-05T05:03:39.999Z,1.40
2024-01-05T05:04:39.813Z,1.00
2024-01-05T05:05:39.919Z,1.80
2024-01-05T05:06:39.949Z,1.30
2024-01-05T05:07:39.832Z,0.90
2024-01-05T05:08:39.770Z,4.30
2024-01-05T05:09:39.849Z,1.30
2024-01-05T05:10:39.716Z,1.70
2024-01-05T05:11:39.750Z,0.90
2024-01-05T05:12:39.754Z,1.20
2024-01-05T05:13:39.777Z,2.40
2024-01-05T05:14:39.660Z,2.50
2024-01-05T05:15:39.947Z,2.60
2024-01-05T05:16:39.638Z,0.90
2024-01-05T05:17:39.756Z,0.70
2024-01-05T05:18:39.752Z,1.40
2024-01-05T05:19:39.644Z,2.40
2024-01-05T05:20:39.584Z,1.50
2024-01-05T05:21:39.717Z,0.50
2024-01-05T05:22:39.558Z,2.00
2024-01-05T05:23:39.646Z,1.40
2024-01-05T05:24:39.563Z,1.70
2024-01-05T05:25:39.557Z,0.50
2024-01-05T05:26:39.508Z,2.50
2024-01-05T05:27:39.568Z,1.50
2024-01-05T05:28:39.481Z,1.40
2024-01-05T05:29:39.474Z,0.80
2024-01-05T05:30:39.517Z,1.10
2024-01-05T05:31:39.528Z,1.80
2024-01-05T05:32:39.491Z,0.60
2024-01-05T05:33:39.622Z,1.00
2024-01-05T05:34:39.498Z,0.50
2024-01-05T05:35:39.443Z,0.70
2024-01-05T05:36:39.408Z,1.00
2024-01-05T05:37:39.441Z,1.80
2024-01-05T05:38:39.344Z,2.40
2024-01-05T05:39:40.486Z,3.50
2024-01-05T05:40:39.314Z,2.20
2024-01-05T05:41:39.386Z,1.20
2024-01-05T05:42:39.337Z,1.30
2024-01-05T05:43:39.384Z,0.90
2024-01-05T05:44:39.254Z,2.40
2024-01-05T05:45:39.400Z,0.30
2024-01-05T05:46:39.238Z,0.90
2024-01-05T05:47:39.511Z,3.20
2024-01-05T05:48:39.376Z,3.10
2024-01-05T05:49:40.263Z,1.20
2024-01-05T05:50:39.177Z,0.30
2024-01-05T05:51:39.365Z,2.10
2024-01-05T05:52:39.145Z,1.30
2024-01-05T05:53:39.268Z,1.80
2024-01-05T05:54:39.226Z,1.00
2024-01-05T05:55:39.165Z,1.00
2024-01-05T05:56:39.099Z,1.60
2024-01-05T05:57:39.351Z,2.00
2024-01-05T05:58:39.140Z,2.40
2024-01-05T05:59:39.098Z,1.80
2024-01-05T06:00:39.160Z,0.70
2024-01-05T06:01:39.118Z,1.50
2024-01-05T06:02:39.023Z,0.90
2024-01-05T06:03:39.129Z,1.10
2024-01-05T06:04:39.112Z,2.10
2024-01-05T06:05:39.076Z,1.00
2024-01-05T06:06:39.027Z,1.80
2024-01-05T06:08:00.046Z,6.00
2024-01-05T06:08:38.956Z,2.00
2024-01-05T06:09:39.055Z,2.40
2024-01-05T06:10:38.924Z,1.60
2024-01-05T06:11:38.973Z,1.70
2024-01-05T06:12:38.928Z,2.70
2024-01-05T06:13:39.004Z,1.10
2024-01-05T06:14:38.871Z,0.70
2024-01-05T06:15:39.038Z,2.20
2024-01-05T06:16:38.834Z,1.70
2024-01-05T06:17:39.015Z,1.50
2024-01-05T06:18:38.992Z,0.70
2024-01-05T06:19:38.922Z,1.00
2024-01-05T06:20:38.786Z,2.20
2024-01-05T06:21:38.960Z,1.70
2024-01-05T06:22:38.799Z,0.90
2024-01-05T06:23:38.872Z,2.70
2024-01-05T06:24:38.841Z,2.10
2024-01-05T06:25:38.768Z,2.80
2024-01-05T06:26:38.708Z,1.60
2024-01-05T06:27:39.586Z,2.50
2024-01-05T06:28:38.711Z,0.50
2024-01-05T06:29:38.689Z,0.80
2024-01-05T06:30:38.744Z,0.80
2024-01-05T06:31:38.753Z,2.60
2024-01-05T06:32:38.662Z,3.00
2024-01-05T06:33:38.799Z,0.40
2024-01-05T06:34:38.773Z,1.30
2024-01-05T06:35:38.645Z,0.90
2024-01-05T06:36:38.689Z,1.80
2024-01-05T06:37:38.649Z,1.80
2024-01-05T06:38:38.549Z,1.10
2024-01-05T06:39:38.660Z,1.00
2024-01-05T06:40:38.524Z,1.50
2024-01-05T06:41:38.578Z,0.70
2024-01-05T06:42:38.550Z,3.20
2024-01-05T06:43:38.584Z,4.30
2024-01-05T06:44:38.471Z,3.80
2024-01-05T06:45:38.742Z,4.90
2024-01-05T06:46:38.447Z,1.00
2024-01-05T06:47:38.535Z,2.40
2024-01-05T06:48:38.603Z,2.80
2024-01-05T06:49:38.540Z,2.60
2024-01-05T06:50:38.581Z,0.90
2024-01-05T06:51:38.550Z,1.30
2024-01-05T06:52:38.372Z,0.60
2024-01-05T06:53:38.454Z,5.60
2024-01-05T06:54:38.366Z,1.40
2024-01-05T06:55:38.395Z,1.40
2024-01-05T06:56:38.306Z,2.00
2024-01-05T06:57:38.490Z,1.10
2024-01-05T06:58:38.279Z,1.40
2024-01-05T06:59:38.286Z,1.20
2024-01-05T07:00:38.337Z,3.60
2024-01-05T07:01:38.305Z,1.30
2024-01-05T07:02:38.270Z,1.40
2024-01-05T07:03:38.370Z,1.00
2024-01-05T07:04:38.201Z,2.60
2024-01-05T07:05:38.294Z,0.40
2024-01-05T07:06:38.191Z,1.20
2024-01-05T07:07:38.243Z,2.70
2024-01-05T07:08:38.165Z,1.90
2024-01-05T07:09:38.302Z,0.70
2024-01-05T07:10:38.180Z,3.60
2024-01-05T07:11:38.236Z,1.20
2024-01-05T07:12:38.139Z,1.30
2024-01-05T07:13:38.217Z,0.90
2024-01-05T07:14:40.173Z,1.30
2024-01-05T07:15:38.178Z,1.40
2024-01-05T07:16:38.045Z,1.10
2024-01-05T07:17:38.229Z,0.70
2024-01-05T07:18:38.179Z,0.30
2024-01-05T07:19:38.073Z,1.80
2024-01-05T07:20:38.005Z,1.10
2024-01-05T07:21:40.072Z,2.70
2024-01-05T07:22:37.968Z,1.30
2024-01-05T07:23:38.060Z,1.20
2024-01-05T07:24:37.957Z,0.70
2024-01-05T07:25:39.015Z,1.60
2024-01-05T07:26:37.922Z,2.20
2024-01-05T07:27:38.156Z,1.90
2024-01-05T07:28:37.914Z,1.10
2024-01-05T07:29:37.896Z,0.60
2024-01-05T07:30:37.941Z,0.80
2024-01-05T07:31:37.920Z,1.00
2024-01-05T07:32:38.133Z,0.80
2024-01-05T07:33:37.962Z,0.80
2024-01-05T07:34:37.928Z,3.00
2024-01-05T07:35:37.851Z,1.00
2024-01-05T07:36:37.847Z,0.90
2024-01-05T07:37:37.865Z,0.40
2024-01-05T07:38:37.759Z,1.70
2024-01-05T07:39:37.877Z,1.50
2024-01-05T07:40:37.762Z,1.30
2024-01-05T07:41:37.797Z,0.90
2024-01-05T07:42:37.732Z,2.30
2024-01-05T07:43:37.791Z,3.60
2024-01-05T07:44:37.697Z,1.00
2024-01-05T07:45:37.849Z,2.30
2024-01-05T07:46:37.661Z,1.40
2024-01-05T07:47:37.834Z,2.30
2024-01-05T07:48:37.776Z,2.10
2024-01-05T07:49:37.705Z,0.40
2024-01-05T07:50:37.663Z,0.50
2024-01-05T07:51:40.104Z,1.10
2024-01-05T07:52:37.589Z,3.20
2024-01-05T07:53:37.669Z,1.70
2024-01-05T07:54:37.606Z,0.60
2024-01-05T07:55:37.581Z,1.20
2024-01-05T07:56:37.541Z,0.70
2024-01-05T07:57:37.742Z,0.90
2024-01-05T07:58:37.534Z,0.90
2024-01-05T07:59:37.505Z,1.20
2024-01-05T08:00:37.661Z,2.60
2024-01-05T08:01:37.578Z,1.60
2024-01-05T08:02:37.453Z,1.90
2024-01-05T08:03:37.575Z,1.60
2024-01-05T08:04:37.435Z,1.50
2024-01-05T08:05:37.488Z,1.20
2024-01-05T08:06:37.425Z,2.60
2024-01-05T08:07:38.492Z,1.60
2024-01-05T08:08:37.390Z,0.70
2024-01-05T08:09:37.476Z,1.30
2024-01-05T08:10:37.361Z,0.50
2024-01-05T08:11:37.407Z,2.90
2024-01-05T08:12:37.348Z,1.10
2024-01-05T08:13:37.405Z,1.60
2024-01-05T08:14:37.286Z,1.80
2024-01-05T08:15:37.467Z,1.50
2024-01-05T08:16:37.471Z,1.00
2024-01-05T08:17:37.338Z,2.00
2024-01-05T08:18:37.356Z,1.90
2024-01-05T08:19:37.424Z,1.40
2024-01-05T08:20:37.220Z,1.30
2024-01-05T08:21:37.352Z,1.70
2024-01-05T08:22:37.180Z,1.80
2024-01-05T08:23:37.270Z,1.70
2024-01-05T08:24:37.279Z,1.50
2024-01-05T08:25:37.299Z,1.30
2024-01-05T08:26:37.138Z,3.10
2024-01-05T08:27:37.346Z,2.10
2024-01-05T08:28:37.132Z,1.70
2024-01-05T08:29:37.272Z,2.20
2024-01-05T08:30:37.170Z,2.00
2024-01-05T08:31:37.174Z,1.50
2024-01-05T08:32:37.101Z,2.40
2024-01-05T08:33:37.170Z,2.40
2024-01-05T08:34:37.152Z,2.50
2024-01-05T08:35:37.069Z,2.60
2024-01-05T08:36:37.232Z,1.40
2024-01-05T08:37:39.448Z,2.40
2024-01-05T08:38:36.959Z,8.00
2024-01-05T08:39:37.103Z,2.20
2024-01-05T08:40:38.611Z,3.80
2024-01-05T08:41:37.637Z,3.50
2024-01-05T08:42:37.837Z,4.20
2024-01-05T08:43:40.557Z,3.40
2024-01-05T08:44:36.892Z,2.80
2024-01-05T08:45:37.032Z,5.40
2024-01-05T08:46:36.873Z,3.10
2024-01-05T08:47:36.942Z,2.60
2024-01-05T08:48:36.914Z,2.30
2024-01-05T08:49:38.745Z,2.00
2024-01-05T08:50:36.837Z,2.30
2024-01-05T08:51:36.957Z,2.40
2024-01-05T08:52:36.786Z,3.10
2024-01-05T08:53:36.879Z,2.90
2024-01-05T08:54:36.963Z,2.70
2024-01-05T08:55:36.829Z,2.40
2024-01-05T08:56:36.747Z,3.50
2024-01-05T08:57:36.843Z,4.10
2024-01-05T08:58:36.701Z,4.50
2024-01-05T08:59:36.732Z,2.80
2024-01-05T09:00:36.786Z,4.30
2024-01-05T09:01:39.099Z,3.90
2024-01-05T09:02:36.668Z,3.40
2024-01-05T09:03:36.772Z,3.40
2024-01-05T09:04:36.625Z,3.80
2024-01-05T09:05:36.729Z,2.70
2024-01-05T09:06:41.409Z,2.80
2024-01-05T09:07:39.404Z,3.00
2024-01-05T09:08:36.684Z,2.80
2024-01-05T09:09:36.630Z,3.50
2024-01-05T09:10:38.109Z,2.60
2024-01-05T09:11:36.874Z,1.70
2024-01-05T09:12:39.285Z,3.00
2024-01-05T09:13:39.295Z,5.30
2024-01-05T09:14:37.020Z,2.60
2024-01-05T09:15:36.973Z,3.20
2024-01-05T09:16:36.536Z,2.80
2024-01-05T09:17:36.478Z,2.10
2024-01-05T09:18:36.588Z,4.30
2024-01-05T09:19:36.538Z,2.40
2024-01-05T09:20:36.466Z,3.30
2024-01-05T09:21:36.466Z,2.40
2024-01-05T09:22:36.538Z,4.10
2024-01-05T09:23:36.406Z,4.60
2024-01-05T09:24:36.484Z,2.60
2024-01-05T09:25:39.610Z,3.00
2024-01-05T09:26:36.346Z,2.60
2024-01-05T09:27:36.574Z,3.50
2024-01-05T09:28:36.321Z,2.50
2024-01-05T09:29:36.324Z,3.90
2024-01-05T09:30:36.372Z,2.30
2024-01-05T09:31:36.443Z,4.30
2024-01-05T09:32:36.310Z,2.60
2024-01-05T09:33:36.364Z,1.40
2024-01-05T09:34:36.235Z,3.90
2024-01-05T09:35:36.278Z,2.80
2024-01-05T09:36:36.212Z,1.40
2024-01-05T09:37:36.284Z,1.90
2024-01-05T09:38:36.183Z,2.20
2024-01-05T09:39:36.301Z,2.70
2024-01-05T09:40:36.151Z,4.40
2024-01-05T09:41:39.136Z,2.20
2024-01-05T09:42:36.129Z,2.70
2024-01-05T09:43:36.215Z,3.10
2024-01-05T09:44:36.092Z,2.10
2024-01-05T09:45:36.235Z,2.50
2024-01-05T09:46:36.065Z,3.60
2024-01-05T09:47:38.442Z,2.20
2024-01-05T09:48:39.996Z,2.00
2024-01-05T09:49:37.556Z,3.00
2024-01-05T09:50:36.184Z,2.20
2024-01-05T09:51:36.158Z,3.10
2024-01-05T09:52:36.087Z,4.30
2024-01-05T09:53:39.463Z,2.90
2024-01-05T09:54:36.015Z,2.50
2024-01-05T09:55:36.003Z,3.70
2024-01-05T09:56:35.926Z,5.30
2024-01-05T09:57:36.042Z,4.40
2024-01-05T09:58:35.944Z,3.00
2024-01-05T09:59:39.791Z,3.50
2024-01-05T10:00:35.930Z,3.60
2024-01-05T10:01:35.985Z,5.80
2024-01-05T10:02:35.863Z,6.70
2024-01-05T10:03:36.044Z,34.70
2024-01-05T10:04:35.941Z,13.80
2024-01-05T10:05:38.368Z,3.90
2024-01-05T10:06:35.837Z,5.50
2024-01-05T10:07:37.131Z,5.60
2024-01-05T10:08:35.787Z,12.30
2024-01-05T10:09:36.003Z,7.50
2024-01-05T10:10:35.744Z,8.80
2024-01-05T10:11:37.818Z,8.20
2024-01-05T10:12:35.778Z,3.70
2024-01-05T10:13:35.778Z,3.40
2024-01-05T10:14:35.684Z,6.10
2024-01-05T10:15:35.887Z,6.50
2024-01-05T10:16:35.665Z,2.30
2024-01-05T10:17:35.869Z,5.90
2024-01-05T10:18:35.733Z,3.50
2024-01-05T10:19:35.926Z,4.40
2024-01-05T10:20:35.605Z,2.80
2024-01-05T10:21:35.860Z,2.90
2024-01-05T10:22:35.585Z,2.90
2024-01-05T10:23:35.648Z,3.40
2024-01-05T10:24:35.598Z,4.30
2024-01-05T10:25:36.646Z,4.50
2024-01-05T10:26:35.531Z,3.80
2024-01-05T10:27:35.710Z,4.80
2024-01-05T10:28:35.501Z,3.20
2024-01-05T10:29:35.562Z,5.50
2024-01-05T10:30:35.646Z,3.90
2024-01-05T10:31:35.965Z,4.20
2024-01-05T10:32:35.491Z,3.50
2024-01-05T10:33:35.746Z,3.10
2024-01-05T10:34:35.554Z,4.30
2024-01-05T10:35:37.044Z,3.70
2024-01-05T10:36:35.435Z,3.10
2024-01-05T10:37:35.493Z,4.30
2024-01-05T10:38:35.375Z,2.70
2024-01-05T10:39:35.518Z,2.40
2024-01-05T10:40:35.358Z,4.00
2024-01-05T10:41:35.411Z,4.80
2024-01-05T10:42:35.365Z,4.70
2024-01-05T10:43:35.337Z,3.60
2024-01-05T10:44:35.290Z,2.50
2024-01-05T10:45:35.422Z,3.70
2024-01-05T10:46:35.262Z,4.00
2024-01-05T10:47:35.455Z,4.30
2024-01-05T10:48:35.353Z,4.20
2024-01-05T10:49:35.443Z,3.30
2024-01-05T10:50:35.209Z,4.80
2024-01-05T10:51:35.345Z,3.30
2024-01-05T10:52:35.175Z,3.80
2024-01-05T10:53:38.651Z,4.50
2024-01-05T10:54:35.258Z,3.40
2024-01-05T10:55:35.219Z,3.70
2024-01-05T10:56:35.137Z,4.00
2024-01-05T10:57:35.199Z,4.70
2024-01-05T10:58:35.124Z,3.90
2024-01-05T10:59:35.152Z,3.80
2024-01-05T11:00:35.254Z,2.90
2024-01-05T11:01:35.179Z,4.00
2024-01-05T11:02:35.053Z,4.30
2024-01-05T11:03:35.169Z,2.20
2024-01-05T11:04:35.031Z,3.60
2024-01-05T11:05:35.126Z,3.40
2024-01-05T11:06:35.027Z,4.50
2024-01-05T11:07:35.351Z,5.30
2024-01-05T11:08:34.972Z,3.60
2024-01-05T11:09:35.103Z,2.60
2024-01-05T11:10:34.944Z,4.80
2024-01-05T11:11:35.028Z,4.90
2024-01-05T11:12:34.926Z,4.30
2024-01-05T11:13:34.974Z,3.10
2024-01-05T11:14:34.897Z,4.40
2024-01-05T11:15:35.048Z,3.80
2024-01-05T11:16:34.854Z,3.80
2024-01-05T11:17:34.889Z,3.20
2024-01-05T11:18:34.993Z,2.60
2024-01-05T11:19:34.967Z,3.40
2024-01-05T11:20:34.820Z,3.20
2024-01-05T11:21:34.853Z,4.20
2024-01-05T11:22:34.787Z,3.50
2024-01-05T11:23:34.810Z,2.60
2024-01-05T11:24:34.798Z,3.60
2024-01-05T11:25:34.907Z,2.90
2024-01-05T11:26:34.740Z,2.80
2024-01-05T11:27:35.041Z,3.10
2024-01-05T11:28:34.726Z,2.90
2024-01-05T11:29:34.747Z,4.20
2024-01-05T11:30:34.743Z,5.10
2024-01-05T11:31:34.938Z,4.00
2024-01-05T11:32:34.773Z,5.20
2024-01-05T11:33:39.200Z,9.60
2024-01-05T11:34:34.780Z,4.70
2024-01-05T11:35:38.221Z,3.70
2024-01-05T11:36:34.665Z,5.20
2024-01-05T11:37:34.714Z,3.90
2024-01-05T11:38:34.564Z,4.80
2024-01-05T11:39:34.750Z,3.30
2024-01-05T11:40:34.604Z,3.40
2024-01-05T11:41:34.643Z,3.30
2024-01-05T11:42:34.930Z,5.00
2024-01-05T11:43:34.705Z,4.90
2024-01-05T11:44:34.495Z,5.20
2024-01-05T11:45:34.640Z,7.00
2024-01-05T11:46:34.470Z,5.60
2024-01-05T11:47:34.615Z,4.50
2024-01-05T11:48:34.664Z,4.10
2024-01-05T11:49:35.137Z,3.80
2024-01-05T11:50:34.638Z,6.00
2024-01-05T11:51:34.462Z,5.50
2024-01-05T11:52:34.388Z,9.00
2024-01-05T11:53:34.496Z,9.10
2024-01-05T11:54:34.386Z,5.00
2024-01-05T11:55:34.414Z,5.30
2024-01-05T11:56:34.331Z,5.30
2024-01-05T11:57:34.440Z,7.10
2024-01-05T11:58:34.304Z,7.10
2024-01-05T11:59:34.345Z,8.40
2024-01-05T12:00:34.334Z,6.30
2024-01-05T12:01:34.387Z,6.50
2024-01-05T12:02:34.249Z,4.90
2024-01-05T12:03:34.440Z,5.80
2024-01-05T12:04:34.266Z,5.40
2024-01-05T12:05:34.316Z,5.30
2024-01-05T12:06:34.206Z,5.40
2024-01-05T12:07:37.262Z,8.50
2024-01-05T12:08:34.163Z,5.00
2024-01-05T12:09:34.304Z,5.40
2024-01-05T12:10:34.144Z,5.10
2024-01-05T12:11:34.227Z,7.20
2024-01-05T12:12:34.116Z,6.50
2024-01-05T12:13:34.450Z,6.20
2024-01-05T12:14:34.095Z,5.50
2024-01-05T12:15:34.124Z,4.60
2024-01-05T12:16:34.072Z,8.00
2024-01-05T12:17:34.207Z,5.80
2024-01-05T12:18:38.101Z,5.50
2024-01-05T12:19:35.161Z,6.60
2024-01-05T12:20:34.091Z,5.40
2024-01-05T12:21:34.010Z,5.20
2024-01-05T12:22:34.005Z,5.30
2024-01-05T12:23:33.973Z,6.10
2024-01-05T12:24:34.042Z,7.80
2024-01-05T12:25:33.931Z,5.30
2024-01-05T12:26:34.033Z,7.10
2024-01-05T12:27:33.966Z,11.80
2024-01-05T12:28:33.945Z,7.40
2024-01-05T12:29:33.889Z,6.00
2024-01-05T12:30:35.469Z,7.40
2024-01-05T12:31:33.960Z,7.20
2024-01-05T12:32:33.889Z,8.40
2024-01-05T12:33:33.938Z,7.00
2024-01-05T12:34:34.035Z,7.10
2024-01-05T12:35:33.795Z,9.20
2024-01-05T12:36:33.962Z,7.50
2024-01-05T12:37:33.778Z,8.90
2024-01-05T12:38:33.829Z,10.70
2024-01-05T12:39:33.833Z,10.20
2024-01-05T12:40:33.827Z,9.00
2024-01-05T12:41:33.738Z,10.70
2024-01-05T12:42:34.729Z,11.40
2024-01-05T12:43:33.756Z,9.40
2024-01-05T12:44:33.795Z,7.70
2024-01-05T12:45:33.721Z,10.30
2024-01-05T12:46:33.664Z,10.10
2024-01-05T12:47:33.664Z,13.20
2024-01-05T12:48:33.859Z,11.00
2024-01-05T12:49:33.711Z,10.70
2024-01-05T12:50:33.707Z,11.30
2024-01-05T12:51:33.658Z,10.60
2024-01-05T12:52:36.247Z,13.50
2024-01-05T12:53:33.563Z,9.10
2024-01-05T12:54:55.664Z,10.90
2024-01-05T12:55:33.532Z,10.40
2024-01-05T12:56:33.711Z,12.10
2024-01-05T12:57:36.144Z,9.80
2024-01-05T12:58:36.058Z,9.20
2024-01-05T12:59:33.562Z,9.80
2024-01-05T13:00:33.506Z,12.30
2024-01-05T13:01:33.839Z,10.00
2024-01-05T13:02:33.434Z,10.90
2024-01-05T13:03:33.605Z,10.10
2024-01-05T13:04:38.283Z,10.50
2024-01-05T13:05:34.424Z,10.50
2024-01-05T13:06:33.462Z,10.80
2024-01-05T13:07:33.367Z,9.60
2024-01-05T13:08:33.425Z,14.90
2024-01-05T13:09:33.398Z,13.10
2024-01-05T13:10:33.428Z,10.20
2024-01-05T13:11:33.316Z,10.00
2024-01-05T13:12:33.370Z,11.60
2024-01-05T13:13:33.290Z,13.00
2024-01-05T13:14:33.387Z,10.10
2024-01-05T13:15:33.327Z,9.80
2024-01-05T13:16:35.465Z,10.40
2024-01-05T13:17:33.273Z,11.20